sensor_id;sensor_type;location;lat;lon;timestamp;temperature;humidity
24224;DHT22;12359;49.716;9.212;2023-02-12T00:00:44;5.80;17.80
24224;DHT22;12359;49.716;9.212;2023-02-12T00:03:10;5.90;18.70
24224;DHT22;12359;49.716;9.212;2023-02-12T00:05:40;5.90;17.80
24224;DHT22;12359;49.716;9.212;2023-02-12T00:08:08;5.90;17.30
24224;DHT22;12359;49.716;9.212;2023-02-12T00:10:40;5.90;18.40
24224;DHT22;12359;49.716;9.212;2023-02-12T00:13:09;5.90;19.50
24224;DHT22;12359;49.716;9.212;2023-02-12T00:15:38;5.90;19.50
24224;DHT22;12359;49.716;9.212;2023-02-12T00:18:03;5.90;19.40
24224;DHT22;12359;49.716;9.212;2023-02-12T00:20:29;5.90;15.80
24224;DHT22;12359;49.716;9.212;2023-02-12T00:22:55;5.90;17.30
24224;DHT22;12359;49.716;9.212;2023-02-12T00:25:20;5.90;18.90
24224;DHT22;12359;49.716;9.212;2023-02-12T00:27:46;5.90;19.50
24224;DHT22;12359;49.716;9.212;2023-02-12T00:30:12;5.80;20.90
24224;DHT22;12359;49.716;9.212;2023-02-12T00:32:38;5.90;21.70
24224;DHT22;12359;49.716;9.212;2023-02-12T00:35:05;5.80;21.00
24224;DHT22;12359;49.716;9.212;2023-02-12T00:37:31;5.80;18.70
24224;DHT22;12359;49.716;9.212;2023-02-12T00:39:56;5.90;18.30
24224;DHT22;12359;49.716;9.212;2023-02-12T00:42:22;5.80;19.00
24224;DHT22;12359;49.716;9.212;2023-02-12T00:44:48;5.80;18.50
24224;DHT22;12359;49.716;9.212;2023-02-12T00:47:13;5.80;18.90
24224;DHT22;12359;49.716;9.212;2023-02-12T00:49:41;5.80;19.00
24224;DHT22;12359;49.716;9.212;2023-02-12T00:52:07;5.80;21.20
24224;DHT22;12359;49.716;9.212;2023-02-12T00:54:32;5.80;22.20
24224;DHT22;12359;49.716;9.212;2023-02-12T00:56:58;5.80;23.60
24224;DHT22;12359;49.716;9.212;2023-02-12T00:59:24;5.80;21.00
24224;DHT22;12359;49.716;9.212;2023-02-12T01:01:52;5.80;20.60
24224;DHT22;12359;49.716;9.212;2023-02-12T01:04:19;5.80;18.80
24224;DHT22;12359;49.716;9.212;2023-02-12T01:06:45;5.70;17.50
24224;DHT22;12359;49.716;9.212;2023-02-12T01:09:10;5.70;19.60
24224;DHT22;12359;49.716;9.212;2023-02-12T01:11:37;5.70;21.00
24224;DHT22;12359;49.716;9.212;2023-02-12T01:14:03;5.70;22.00
24224;DHT22;12359;49.716;9.212;2023-02-12T01:16:29;5.60;24.50
24224;DHT22;12359;49.716;9.212;2023-02-12T01:18:58;5.60;23.90
24224;DHT22;12359;49.716;9.212;2023-02-12T01:21:26;5.60;26.80
24224;DHT22;12359;49.716;9.212;2023-02-12T01:23:52;5.70;25.90
24224;DHT22;12359;49.716;9.212;2023-02-12T01:26:19;5.60;25.80
24224;DHT22;12359;49.716;9.212;2023-02-12T01:28:49;5.60;27.40
24224;DHT22;12359;49.716;9.212;2023-02-12T01:31:18;5.60;28.90
24224;DHT22;12359;49.716;9.212;2023-02-12T01:33:47;5.70;29.20
24224;DHT22;12359;49.716;9.212;2023-02-12T01:36:13;5.70;26.80
24224;DHT22;12359;49.716;9.212;2023-02-12T01:38:39;5.70;26.60
24224;DHT22;12359;49.716;9.212;2023-02-12T01:41:07;5.70;28.30
24224;DHT22;12359;49.716;9.212;2023-02-12T01:43:34;5.70;25.90
24224;DHT22;12359;49.716;9.212;2023-02-12T01:46:01;5.70;27.20
24224;DHT22;12359;49.716;9.212;2023-02-12T01:48:30;5.60;26.30
24224;DHT22;12359;49.716;9.212;2023-02-12T01:50:57;5.60;28.80
24224;DHT22;12359;49.716;9.212;2023-02-12T01:53:38;5.60;28.00
24224;DHT22;12359;49.716;9.212;2023-02-12T01:56:06;5.60;28.20
24224;DHT22;12359;49.716;9.212;2023-02-12T01:58:37;5.60;28.60
24224;DHT22;12359;49.716;9.212;2023-02-12T02:01:06;5.60;27.40
24224;DHT22;12359;49.716;9.212;2023-02-12T02:03:35;5.60;27.00
24224;DHT22;12359;49.716;9.212;2023-02-12T02:06:21;5.60;29.50
24224;DHT22;12359;49.716;9.212;2023-02-12T02:08:50;5.50;26.30
24224;DHT22;12359;49.716;9.212;2023-02-12T02:11:15;5.50;28.90
24224;DHT22;12359;49.716;9.212;2023-02-12T02:14:00;5.50;30.20
24224;DHT22;12359;49.716;9.212;2023-02-12T02:33:57;5.50;30.30
24224;DHT22;12359;49.716;9.212;2023-02-12T02:41:48;5.60;29.80
24224;DHT22;12359;49.716;9.212;2023-02-12T02:44:27;5.50;28.80
24224;DHT22;12359;49.716;9.212;2023-02-12T02:46:56;5.50;29.00
24224;DHT22;12359;49.716;9.212;2023-02-12T02:49:24;5.60;30.10
24224;DHT22;12359;49.716;9.212;2023-02-12T02:51:54;5.60;28.80
24224;DHT22;12359;49.716;9.212;2023-02-12T02:54:26;5.60;29.00
24224;DHT22;12359;49.716;9.212;2023-02-12T02:56:55;5.60;29.90
24224;DHT22;12359;49.716;9.212;2023-02-12T02:59:34;5.50;28.90
24224;DHT22;12359;49.716;9.212;2023-02-12T03:02:17;5.50;30.20
24224;DHT22;12359;49.716;9.212;2023-02-12T03:04:49;5.50;31.90
24224;DHT22;12359;49.716;9.212;2023-02-12T03:07:31;5.50;30.30
24224;DHT22;12359;49.716;9.212;2023-02-12T03:10:14;5.50;29.90
24224;DHT22;12359;49.716;9.212;2023-02-12T03:18:24;5.50;35.70
24224;DHT22;12359;49.716;9.212;2023-02-12T03:20:57;5.50;34.10
24224;DHT22;12359;49.716;9.212;2023-02-12T03:23:28;5.40;33.20
24224;DHT22;12359;49.716;9.212;2023-02-12T03:26:13;5.40;38.10
24224;DHT22;12359;49.716;9.212;2023-02-12T03:28:42;5.50;38.00
24224;DHT22;12359;49.716;9.212;2023-02-12T03:34:03;5.50;36.70
24224;DHT22;12359;49.716;9.212;2023-02-12T03:36:50;5.50;38.30
24224;DHT22;12359;49.716;9.212;2023-02-12T03:41:58;5.50;36.50
24224;DHT22;12359;49.716;9.212;2023-02-12T03:47:40;5.50;36.90
24224;DHT22;12359;49.716;9.212;2023-02-12T03:50:09;5.50;40.50
24224;DHT22;12359;49.716;9.212;2023-02-12T03:52:35;5.40;38.80
24224;DHT22;12359;49.716;9.212;2023-02-12T03:55:02;5.40;42.20
24224;DHT22;12359;49.716;9.212;2023-02-12T03:57:32;5.50;43.90
24224;DHT22;12359;49.716;9.212;2023-02-12T04:00:05;5.50;43.90
24224;DHT22;12359;49.716;9.212;2023-02-12T04:02:32;5.50;42.70
24224;DHT22;12359;49.716;9.212;2023-02-12T04:05:04;5.40;42.00
24224;DHT22;12359;49.716;9.212;2023-02-12T04:07:30;5.40;42.30
24224;DHT22;12359;49.716;9.212;2023-02-12T04:09:56;5.40;42.90
24224;DHT22;12359;49.716;9.212;2023-02-12T04:13:41;5.40;40.20
24224;DHT22;12359;49.716;9.212;2023-02-12T04:18:39;5.40;41.90
24224;DHT22;12359;49.716;9.212;2023-02-12T04:27:47;5.40;45.90
24224;DHT22;12359;49.716;9.212;2023-02-12T04:30:20;5.40;44.80
24224;DHT22;12359;49.716;9.212;2023-02-12T04:32:52;5.40;45.00
24224;DHT22;12359;49.716;9.212;2023-02-12T04:35:27;5.40;45.10
24224;DHT22;12359;49.716;9.212;2023-02-12T04:40:30;5.40;43.20
24224;DHT22;12359;49.716;9.212;2023-02-12T04:42:56;5.40;43.80
24224;DHT22;12359;49.716;9.212;2023-02-12T04:45:26;5.40;43.10
24224;DHT22;12359;49.716;9.212;2023-02-12T04:47:54;5.50;44.00
24224;DHT22;12359;49.716;9.212;2023-02-12T04:50:20;5.40;42.70
24224;DHT22;12359;49.716;9.212;2023-02-12T04:52:46;5.40;41.10
24224;DHT22;12359;49.716;9.212;2023-02-12T04:55:12;5.50;41.00
24224;DHT22;12359;49.716;9.212;2023-02-12T04:57:38;5.40;40.60
24224;DHT22;12359;49.716;9.212;2023-02-12T05:00:05;5.40;39.70
24224;DHT22;12359;49.716;9.212;2023-02-12T05:02:33;5.40;40.70
24224;DHT22;12359;49.716;9.212;2023-02-12T05:04:59;5.40;42.40
24224;DHT22;12359;49.716;9.212;2023-02-12T05:07:24;5.40;43.50
24224;DHT22;12359;49.716;9.212;2023-02-12T05:09:50;5.40;43.90
24224;DHT22;12359;49.716;9.212;2023-02-12T05:12:16;5.40;43.10
24224;DHT22;12359;49.716;9.212;2023-02-12T05:14:42;5.40;41.40
24224;DHT22;12359;49.716;9.212;2023-02-12T05:17:07;5.40;40.80
24224;DHT22;12359;49.716;9.212;2023-02-12T05:19:33;5.40;40.60
24224;DHT22;12359;49.716;9.212;2023-02-12T05:21:59;5.40;40.80
24224;DHT22;12359;49.716;9.212;2023-02-12T05:24:25;5.40;40.30
24224;DHT22;12359;49.716;9.212;2023-02-12T05:26:50;5.40;40.20
24224;DHT22;12359;49.716;9.212;2023-02-12T05:29:16;5.40;41.20
24224;DHT22;12359;49.716;9.212;2023-02-12T05:31:42;5.40;41.50
24224;DHT22;12359;49.716;9.212;2023-02-12T05:34:11;5.30;42.80
24224;DHT22;12359;49.716;9.212;2023-02-12T05:36:37;5.30;44.30
24224;DHT22;12359;49.716;9.212;2023-02-12T05:39:04;5.30;43.70
24224;DHT22;12359;49.716;9.212;2023-02-12T05:41:29;5.30;45.90
24224;DHT22;12359;49.716;9.212;2023-02-12T05:44:00;5.30;45.70
24224;DHT22;12359;49.716;9.212;2023-02-12T05:46:26;5.30;47.30
24224;DHT22;12359;49.716;9.212;2023-02-12T05:48:52;5.30;46.70
24224;DHT22;12359;49.716;9.212;2023-02-12T05:51:23;5.30;46.10
24224;DHT22;12359;49.716;9.212;2023-02-12T05:53:54;5.30;46.20
24224;DHT22;12359;49.716;9.212;2023-02-12T05:56:22;5.30;45.70
24224;DHT22;12359;49.716;9.212;2023-02-12T05:58:53;5.30;44.40
24224;DHT22;12359;49.716;9.212;2023-02-12T06:01:22;5.30;44.00
24224;DHT22;12359;49.716;9.212;2023-02-12T06:03:48;5.30;43.40
24224;DHT22;12359;49.716;9.212;2023-02-12T06:06:13;5.30;42.80
24224;DHT22;12359;49.716;9.212;2023-02-12T06:08:39;5.20;43.00
24224;DHT22;12359;49.716;9.212;2023-02-12T06:11:09;5.20;43.40
24224;DHT22;12359;49.716;9.212;2023-02-12T06:13:34;5.20;44.30
24224;DHT22;12359;49.716;9.212;2023-02-12T06:16:00;5.20;41.40
24224;DHT22;12359;49.716;9.212;2023-02-12T06:18:26;5.20;44.40
24224;DHT22;12359;49.716;9.212;2023-02-12T06:20:52;5.20;45.70
24224;DHT22;12359;49.716;9.212;2023-02-12T06:23:22;5.10;46.00
24224;DHT22;12359;49.716;9.212;2023-02-12T06:25:49;5.10;49.30
24224;DHT22;12359;49.716;9.212;2023-02-12T06:28:15;5.20;50.60
24224;DHT22;12359;49.716;9.212;2023-02-12T06:30:42;5.10;49.10
24224;DHT22;12359;49.716;9.212;2023-02-12T06:33:08;5.10;46.80
24224;DHT22;12359;49.716;9.212;2023-02-12T06:35:35;5.20;49.00
24224;DHT22;12359;49.716;9.212;2023-02-12T06:38:01;5.20;48.60
24224;DHT22;12359;49.716;9.212;2023-02-12T06:40:27;5.20;46.80
24224;DHT22;12359;49.716;9.212;2023-02-12T06:42:52;5.20;46.80
24224;DHT22;12359;49.716;9.212;2023-02-12T06:45:18;5.20;47.50
24224;DHT22;12359;49.716;9.212;2023-02-12T06:47:44;5.20;46.60
24224;DHT22;12359;49.716;9.212;2023-02-12T06:50:10;5.30;46.90
24224;DHT22;12359;49.716;9.212;2023-02-12T06:52:35;5.20;45.40
24224;DHT22;12359;49.716;9.212;2023-02-12T06:55:01;5.30;46.20
24224;DHT22;12359;49.716;9.212;2023-02-12T06:57:28;5.30;45.90
24224;DHT22;12359;49.716;9.212;2023-02-12T06:59:54;5.30;47.80
24224;DHT22;12359;49.716;9.212;2023-02-12T07:02:20;5.40;48.80
24224;DHT22;12359;49.716;9.212;2023-02-12T07:04:46;5.40;48.40
24224;DHT22;12359;49.716;9.212;2023-02-12T07:07:12;5.40;48.30
24224;DHT22;12359;49.716;9.212;2023-02-12T07:09:37;5.50;47.10
24224;DHT22;12359;49.716;9.212;2023-02-12T07:12:03;5.50;43.90
24224;DHT22;12359;49.716;9.212;2023-02-12T07:14:29;5.50;42.00
24224;DHT22;12359;49.716;9.212;2023-02-12T07:16:55;5.50;45.80
24224;DHT22;12359;49.716;9.212;2023-02-12T07:19:21;5.40;39.70
24224;DHT22;12359;49.716;9.212;2023-02-12T07:21:47;5.50;47.20
24224;DHT22;12359;49.716;9.212;2023-02-12T07:24:14;5.50;46.00
24224;DHT22;12359;49.716;9.212;2023-02-12T07:26:41;5.50;47.50
24224;DHT22;12359;49.716;9.212;2023-02-12T07:29:06;5.50;45.00
24224;DHT22;12359;49.716;9.212;2023-02-12T07:31:32;5.60;46.20
24224;DHT22;12359;49.716;9.212;2023-02-12T07:33:59;5.60;44.30
24224;DHT22;12359;49.716;9.212;2023-02-12T07:36:30;5.60;44.50
24224;DHT22;12359;49.716;9.212;2023-02-12T07:38:58;5.70;45.50
24224;DHT22;12359;49.716;9.212;2023-02-12T07:41:25;5.80;44.80
24224;DHT22;12359;49.716;9.212;2023-02-12T07:43:59;5.80;41.70
24224;DHT22;12359;49.716;9.212;2023-02-12T07:46:30;5.90;41.00
24224;DHT22;12359;49.716;9.212;2023-02-12T07:48:57;5.90;38.30
24224;DHT22;12359;49.716;9.212;2023-02-12T07:51:24;6.00;39.30
24224;DHT22;12359;49.716;9.212;2023-02-12T07:53:51;6.10;37.30
24224;DHT22;12359;49.716;9.212;2023-02-12T07:56:19;6.10;33.10
24224;DHT22;12359;49.716;9.212;2023-02-12T07:58:47;6.10;30.00
24224;DHT22;12359;49.716;9.212;2023-02-12T08:03:42;6.20;28.00
24224;DHT22;12359;49.716;9.212;2023-02-12T08:06:10;6.20;25.30
24224;DHT22;12359;49.716;9.212;2023-02-12T08:08:35;6.30;27.70
24224;DHT22;12359;49.716;9.212;2023-02-12T08:11:04;6.30;26.10
24224;DHT22;12359;49.716;9.212;2023-02-12T08:13:31;6.40;24.30
24224;DHT22;12359;49.716;9.212;2023-02-12T08:16:08;6.40;25.10
24224;DHT22;12359;49.716;9.212;2023-02-12T08:18:34;6.50;23.50
24224;DHT22;12359;49.716;9.212;2023-02-12T08:21:14;6.50;21.80
24224;DHT22;12359;49.716;9.212;2023-02-12T08:23:40;6.60;20.00
24224;DHT22;12359;49.716;9.212;2023-02-12T08:26:15;6.60;19.20
24224;DHT22;12359;49.716;9.212;2023-02-12T08:28:55;6.60;15.40
24224;DHT22;12359;49.716;9.212;2023-02-12T08:31:26;6.70;16.30
24224;DHT22;12359;49.716;9.212;2023-02-12T08:33:53;6.70;13.10
24224;DHT22;12359;49.716;9.212;2023-02-12T08:36:24;6.80;12.00
24224;DHT22;12359;49.716;9.212;2023-02-12T08:38:51;6.90;7.20
24224;DHT22;12359;49.716;9.212;2023-02-12T08:41:21;6.90;1.00
24224;DHT22;12359;49.716;9.212;2023-02-12T08:43:48;6.90;1.00
24224;DHT22;12359;49.716;9.212;2023-02-12T08:46:17;6.90;1.00
24224;DHT22;12359;49.716;9.212;2023-02-12T08:48:44;7.00;1.00
24224;DHT22;12359;49.716;9.212;2023-02-12T08:51:18;7.00;1.00
24224;DHT22;12359;49.716;9.212;2023-02-12T08:53:46;6.90;1.00
24224;DHT22;12359;49.716;9.212;2023-02-12T08:56:14;7.00;1.00
24224;DHT22;12359;49.716;9.212;2023-02-12T08:58:41;7.00;1.00
24224;DHT22;12359;49.716;9.212;2023-02-12T09:01:12;7.00;1.00
24224;DHT22;12359;49.716;9.212;2023-02-12T09:03:38;7.10;1.00
24224;DHT22;12359;49.716;9.212;2023-02-12T09:06:07;7.10;1.00
24224;DHT22;12359;49.716;9.212;2023-02-12T09:08:34;7.20;1.00
24224;DHT22;12359;49.716;9.212;2023-02-12T09:11:06;7.20;1.00
24224;DHT22;12359;49.716;9.212;2023-02-12T09:13:32;7.30;1.00
24224;DHT22;12359;49.716;9.212;2023-02-12T09:16:00;7.30;1.00
24224;DHT22;12359;49.716;9.212;2023-02-12T09:18:27;7.40;1.00
24224;DHT22;12359;49.716;9.212;2023-02-12T09:20:52;7.50;1.00
24224;DHT22;12359;49.716;9.212;2023-02-12T09:23:18;7.50;1.00
24224;DHT22;12359;49.716;9.212;2023-02-12T09:25:45;7.70;1.00
24224;DHT22;12359;49.716;9.212;2023-02-12T09:28:12;7.80;1.00
24224;DHT22;12359;49.716;9.212;2023-02-12T09:30:39;7.80;1.00
24224;DHT22;12359;49.716;9.212;2023-02-12T09:33:06;7.80;1.00
24224;DHT22;12359;49.716;9.212;2023-02-12T09:35:36;7.90;1.00
24224;DHT22;12359;49.716;9.212;2023-02-12T09:38:04;7.90;1.00
24224;DHT22;12359;49.716;9.212;2023-02-12T09:43:17;8.30;1.00
24224;DHT22;12359;49.716;9.212;2023-02-12T09:46:03;8.50;1.00
24224;DHT22;12359;49.716;9.212;2023-02-12T09:51:29;8.90;1.00
24224;DHT22;12359;49.716;9.212;2023-02-12T09:54:03;9.00;99.90
24224;DHT22;12359;49.716;9.212;2023-02-12T09:56:30;9.00;99.90
24224;DHT22;12359;49.716;9.212;2023-02-12T09:58:58;9.00;99.90
24224;DHT22;12359;49.716;9.212;2023-02-12T10:01:26;9.10;99.90
24224;DHT22;12359;49.716;9.212;2023-02-12T10:03:52;9.30;99.90
24224;DHT22;12359;49.716;9.212;2023-02-12T10:06:26;9.40;99.90
24224;DHT22;12359;49.716;9.212;2023-02-12T10:17:37;9.60;99.90
24224;DHT22;12359;49.716;9.212;2023-02-12T10:28:11;10.20;99.90
24224;DHT22;12359;49.716;9.212;2023-02-12T10:33:24;10.50;99.90
24224;DHT22;12359;49.716;9.212;2023-02-12T10:38:49;10.60;99.90
24224;DHT22;12359;49.716;9.212;2023-02-12T10:41:16;10.60;99.90
24224;DHT22;12359;49.716;9.212;2023-02-12T10:43:42;10.70;93.70
24224;DHT22;12359;49.716;9.212;2023-02-12T10:46:15;10.80;37.20
24224;DHT22;12359;49.716;9.212;2023-02-12T10:48:43;10.90;1.00
24224;DHT22;12359;49.716;9.212;2023-02-12T10:51:33;11.10;1.00
24224;DHT22;12359;49.716;9.212;2023-02-12T10:57:26;11.20;99.90
24224;DHT22;12359;49.716;9.212;2023-02-12T10:59:54;11.50;4.10
24224;DHT22;12359;49.716;9.212;2023-02-12T11:02:28;11.80;1.00
24224;DHT22;12359;49.716;9.212;2023-02-12T11:04:55;12.10;99.90
24224;DHT22;12359;49.716;9.212;2023-02-12T11:07:23;12.80;1.00
24224;DHT22;12359;49.716;9.212;2023-02-12T11:09:51;13.30;1.00
24224;DHT22;12359;49.716;9.212;2023-02-12T11:12:33;13.60;1.00
24224;DHT22;12359;49.716;9.212;2023-02-12T11:15:12;13.80;1.00
24224;DHT22;12359;49.716;9.212;2023-02-12T11:17:54;14.20;99.90
24224;DHT22;12359;49.716;9.212;2023-02-12T11:22:58;14.90;99.90
24224;DHT22;12359;49.716;9.212;2023-02-12T11:25:28;14.80;1.00
24224;DHT22;12359;49.716;9.212;2023-02-12T11:36:26;15.30;48.70
24224;DHT22;12359;49.716;9.212;2023-02-12T11:38:54;15.50;38.40
24224;DHT22;12359;49.716;9.212;2023-02-12T11:44:22;15.80;26.80
24224;DHT22;12359;49.716;9.212;2023-02-12T11:47:08;16.10;1.00
24224;DHT22;12359;49.716;9.212;2023-02-12T11:52:21;16.10;99.90
24224;DHT22;12359;49.716;9.212;2023-02-12T11:54:49;16.30;99.90
24224;DHT22;12359;49.716;9.212;2023-02-12T12:00:36;16.80;99.90
24224;DHT22;12359;49.716;9.212;2023-02-12T12:08:50;17.30;99.90
24224;DHT22;12359;49.716;9.212;2023-02-12T12:11:31;16.90;99.90
24224;DHT22;12359;49.716;9.212;2023-02-12T12:16:49;17.10;99.90
24224;DHT22;12359;49.716;9.212;2023-02-12T12:19:42;16.40;99.90
24224;DHT22;12359;49.716;9.212;2023-02-12T12:25:20;16.60;99.90
24224;DHT22;12359;49.716;9.212;2023-02-12T12:33:42;17.30;99.90
24224;DHT22;12359;49.716;9.212;2023-02-12T12:36:30;17.80;99.90
24224;DHT22;12359;49.716;9.212;2023-02-12T12:47:40;18.20;99.90
24224;DHT22;12359;49.716;9.212;2023-02-12T13:02:13;17.20;99.90
24224;DHT22;12359;49.716;9.212;2023-02-12T13:18:27;14.90;99.90
24224;DHT22;12359;49.716;9.212;2023-02-12T13:21:05;14.90;99.90
24224;DHT22;12359;49.716;9.212;2023-02-12T13:28:49;14.50;1.00
24224;DHT22;12359;49.716;9.212;2023-02-12T13:31:21;14.40;1.00
24224;DHT22;12359;49.716;9.212;2023-02-12T13:33:54;14.30;36.10
24224;DHT22;12359;49.716;9.212;2023-02-12T13:36:20;14.30;68.00
24224;DHT22;12359;49.716;9.212;2023-02-12T13:41:43;14.20;99.90
24224;DHT22;12359;49.716;9.212;2023-02-12T13:44:36;14.30;99.90
24224;DHT22;12359;49.716;9.212;2023-02-12T13:53:28;14.10;99.90
24224;DHT22;12359;49.716;9.212;2023-02-12T13:56:00;14.10;99.90
24224;DHT22;12359;49.716;9.212;2023-02-12T14:03:28;13.80;1.00
24224;DHT22;12359;49.716;9.212;2023-02-12T14:06:18;13.80;1.00
24224;DHT22;12359;49.716;9.212;2023-02-12T14:09:06;13.90;1.00
24224;DHT22;12359;49.716;9.212;2023-02-12T14:11:32;14.00;1.00
24224;DHT22;12359;49.716;9.212;2023-02-12T14:14:02;14.00;1.00
24224;DHT22;12359;49.716;9.212;2023-02-12T14:24:50;14.00;99.90
24224;DHT22;12359;49.716;9.212;2023-02-12T14:37:55;13.60;1.00
24224;DHT22;12359;49.716;9.212;2023-02-12T14:43:02;13.50;99.90
24224;DHT22;12359;49.716;9.212;2023-02-12T14:47:55;13.20;1.00
24224;DHT22;12359;49.716;9.212;2023-02-12T14:50:25;13.10;99.90
24224;DHT22;12359;49.716;9.212;2023-02-12T14:53:29;13.00;99.90
24224;DHT22;12359;49.716;9.212;2023-02-12T14:55:56;12.90;1.00
24224;DHT22;12359;49.716;9.212;2023-02-12T14:58:24;12.70;56.90
24224;DHT22;12359;49.716;9.212;2023-02-12T15:00:53;12.50;99.90
24224;DHT22;12359;49.716;9.212;2023-02-12T15:03:24;12.40;99.90
24224;DHT22;12359;49.716;9.212;2023-02-12T15:06:06;12.30;1.00
24224;DHT22;12359;49.716;9.212;2023-02-12T15:11:27;12.20;99.90
24224;DHT22;12359;49.716;9.212;2023-02-12T15:14:03;12.00;1.00
24224;DHT22;12359;49.716;9.212;2023-02-12T15:21:46;11.80;2.90
24224;DHT22;12359;49.716;9.212;2023-02-12T15:24:19;11.70;99.90
24224;DHT22;12359;49.716;9.212;2023-02-12T15:26:48;11.70;99.90
24224;DHT22;12359;49.716;9.212;2023-02-12T15:29:42;11.60;99.90
24224;DHT22;12359;49.716;9.212;2023-02-12T15:32:18;11.60;1.00
24224;DHT22;12359;49.716;9.212;2023-02-12T15:34:47;11.60;1.00
24224;DHT22;12359;49.716;9.212;2023-02-12T15:37:21;11.50;1.00
24224;DHT22;12359;49.716;9.212;2023-02-12T15:39:47;11.40;83.70
24224;DHT22;12359;49.716;9.212;2023-02-12T15:42:34;11.40;99.90
24224;DHT22;12359;49.716;9.212;2023-02-12T15:45:23;11.30;99.90
24224;DHT22;12359;49.716;9.212;2023-02-12T15:50:44;11.10;99.90
24224;DHT22;12359;49.716;9.212;2023-02-12T15:53:11;11.10;1.00
24224;DHT22;12359;49.716;9.212;2023-02-12T15:55:41;11.00;1.00
24224;DHT22;12359;49.716;9.212;2023-02-12T15:58:22;11.00;1.00
24224;DHT22;12359;49.716;9.212;2023-02-12T16:00:48;10.80;22.20
24224;DHT22;12359;49.716;9.212;2023-02-12T16:03:25;10.80;75.40
24224;DHT22;12359;49.716;9.212;2023-02-12T16:05:51;10.80;56.50
24224;DHT22;12359;49.716;9.212;2023-02-12T16:08:20;10.70;99.90
24224;DHT22;12359;49.716;9.212;2023-02-12T16:10:49;10.70;99.90
24224;DHT22;12359;49.716;9.212;2023-02-12T16:13:33;10.60;99.90
24224;DHT22;12359;49.716;9.212;2023-02-12T16:16:23;10.40;99.90
24224;DHT22;12359;49.716;9.212;2023-02-12T16:21:46;10.40;99.90
24224;DHT22;12359;49.716;9.212;2023-02-12T16:27:03;10.30;99.90
24224;DHT22;12359;49.716;9.212;2023-02-12T16:29:32;10.20;99.90
24224;DHT22;12359;49.716;9.212;2023-02-12T16:32:01;10.20;99.90
24224;DHT22;12359;49.716;9.212;2023-02-12T16:34:35;10.20;99.90
24224;DHT22;12359;49.716;9.212;2023-02-12T16:37:39;10.10;99.90
24224;DHT22;12359;49.716;9.212;2023-02-12T16:42:25;10.10;99.90
24224;DHT22;12359;49.716;9.212;2023-02-12T16:44:54;10.10;99.90
24224;DHT22;12359;49.716;9.212;2023-02-12T16:47:22;10.00;99.90
24224;DHT22;12359;49.716;9.212;2023-02-12T16:49:59;10.00;99.90
24224;DHT22;12359;49.716;9.212;2023-02-12T16:54:51;9.90;1.00
24224;DHT22;12359;49.716;9.212;2023-02-12T16:57:17;9.90;1.00
24224;DHT22;12359;49.716;9.212;2023-02-12T16:59:42;10.20;1.00
24224;DHT22;12359;49.716;9.212;2023-02-12T17:02:12;10.40;1.00
24224;DHT22;12359;49.716;9.212;2023-02-12T17:04:38;10.20;99.90
24224;DHT22;12359;49.716;9.212;2023-02-12T17:07:14;10.10;99.90
24224;DHT22;12359;49.716;9.212;2023-02-12T17:09:41;9.90;99.90
24224;DHT22;12359;49.716;9.212;2023-02-12T17:12:06;9.80;99.90
24224;DHT22;12359;49.716;9.212;2023-02-12T17:14:32;9.70;99.90
24224;DHT22;12359;49.716;9.212;2023-02-12T17:16:58;9.70;1.00
24224;DHT22;12359;49.716;9.212;2023-02-12T17:19:23;9.60;1.00
24224;DHT22;12359;49.716;9.212;2023-02-12T17:21:49;9.60;1.00
24224;DHT22;12359;49.716;9.212;2023-02-12T17:24:22;9.50;1.00
24224;DHT22;12359;49.716;9.212;2023-02-12T17:26:49;9.50;1.00
24224;DHT22;12359;49.716;9.212;2023-02-12T17:29:17;9.40;1.00
24224;DHT22;12359;49.716;9.212;2023-02-12T17:31:42;9.40;1.00
24224;DHT22;12359;49.716;9.212;2023-02-12T17:34:08;9.40;1.00
24224;DHT22;12359;49.716;9.212;2023-02-12T17:36:34;9.50;1.00
24224;DHT22;12359;49.716;9.212;2023-02-12T17:39:02;9.40;1.00
24224;DHT22;12359;49.716;9.212;2023-02-12T17:41:28;9.50;1.00
24224;DHT22;12359;49.716;9.212;2023-02-12T17:43:54;9.50;1.00
24224;DHT22;12359;49.716;9.212;2023-02-12T17:46:21;9.50;1.00
24224;DHT22;12359;49.716;9.212;2023-02-12T17:48:47;9.50;1.00
24224;DHT22;12359;49.716;9.212;2023-02-12T17:51:13;9.50;1.00
24224;DHT22;12359;49.716;9.212;2023-02-12T17:53:39;9.40;1.00
24224;DHT22;12359;49.716;9.212;2023-02-12T17:56:10;9.40;1.00
24224;DHT22;12359;49.716;9.212;2023-02-12T17:58:36;9.30;1.00
24224;DHT22;12359;49.716;9.212;2023-02-12T18:01:06;9.30;1.00
24224;DHT22;12359;49.716;9.212;2023-02-12T18:03:32;9.30;1.00
24224;DHT22;12359;49.716;9.212;2023-02-12T18:05:58;9.20;1.00
24224;DHT22;12359;49.716;9.212;2023-02-12T18:08:24;9.20;1.00
24224;DHT22;12359;49.716;9.212;2023-02-12T18:10:49;9.20;1.00
24224;DHT22;12359;49.716;9.212;2023-02-12T18:13:15;9.10;1.00
24224;DHT22;12359;49.716;9.212;2023-02-12T18:15:42;9.10;1.00
24224;DHT22;12359;49.716;9.212;2023-02-12T18:18:08;9.10;1.00
24224;DHT22;12359;49.716;9.212;2023-02-12T18:20:34;9.00;1.00
24224;DHT22;12359;49.716;9.212;2023-02-12T18:23:00;9.00;1.00
24224;DHT22;12359;49.716;9.212;2023-02-12T18:25:27;9.00;1.00
24224;DHT22;12359;49.716;9.212;2023-02-12T18:27:53;9.00;1.00
24224;DHT22;12359;49.716;9.212;2023-02-12T18:30:19;9.00;1.00
24224;DHT22;12359;49.716;9.212;2023-02-12T18:32:45;8.90;1.00
24224;DHT22;12359;49.716;9.212;2023-02-12T18:35:11;8.90;1.00
24224;DHT22;12359;49.716;9.212;2023-02-12T18:37:37;8.90;1.00
24224;DHT22;12359;49.716;9.212;2023-02-12T18:40:03;8.90;1.00
24224;DHT22;12359;49.716;9.212;2023-02-12T18:42:29;8.90;1.00
24224;DHT22;12359;49.716;9.212;2023-02-12T18:44:57;8.90;1.00
24224;DHT22;12359;49.716;9.212;2023-02-12T18:47:23;8.90;1.00
24224;DHT22;12359;49.716;9.212;2023-02-12T18:49:51;8.90;1.00
24224;DHT22;12359;49.716;9.212;2023-02-12T18:52:16;8.90;1.00
24224;DHT22;12359;49.716;9.212;2023-02-12T18:54:42;8.90;1.00
24224;DHT22;12359;49.716;9.212;2023-02-12T18:57:09;8.90;1.00
24224;DHT22;12359;49.716;9.212;2023-02-12T18:59:35;8.90;1.00
24224;DHT22;12359;49.716;9.212;2023-02-12T19:02:04;8.90;1.00
24224;DHT22;12359;49.716;9.212;2023-02-12T19:04:30;8.90;1.00
24224;DHT22;12359;49.716;9.212;2023-02-12T19:06:56;8.90;1.00
24224;DHT22;12359;49.716;9.212;2023-02-12T19:09:23;8.90;1.00
24224;DHT22;12359;49.716;9.212;2023-02-12T19:11:51;9.00;1.00
24224;DHT22;12359;49.716;9.212;2023-02-12T19:14:18;8.90;1.00
24224;DHT22;12359;49.716;9.212;2023-02-12T19:16:45;8.90;1.00
24224;DHT22;12359;49.716;9.212;2023-02-12T19:19:12;8.90;1.00
24224;DHT22;12359;49.716;9.212;2023-02-12T19:21:38;8.90;1.00
24224;DHT22;12359;49.716;9.212;2023-02-12T19:24:04;8.90;1.00
24224;DHT22;12359;49.716;9.212;2023-02-12T19:26:32;8.90;1.00
24224;DHT22;12359;49.716;9.212;2023-02-12T19:28:59;8.90;1.00
24224;DHT22;12359;49.716;9.212;2023-02-12T19:31:33;9.00;1.00
24224;DHT22;12359;49.716;9.212;2023-02-12T19:34:04;9.00;1.00
24224;DHT22;12359;49.716;9.212;2023-02-12T19:36:31;9.00;1.00
24224;DHT22;12359;49.716;9.212;2023-02-12T19:38:58;9.00;1.00
24224;DHT22;12359;49.716;9.212;2023-02-12T19:41:26;9.00;1.00